Time;durP1;ratioP1;P1;durP2;ratioP2;P2;SDS_P1;SDS_P2;PMS_P1;PMS_P2;Temp;Humidity;BMP_temperature;BMP_pressure;BME280_temperature;BME280_humidity;BME280_pressure;Samples;Min_cycle;Max_cycle;Signal;HPM_P1;HPM_P2
2023/04/27 00:00:02;;;;;;;4.80;3.60;;;;;;;9.21;41.60;99379.50;5087875;28;20173;-74
2023/04/27 00:02:29;;;;;;;6.22;3.58;;;;;;;9.20;41.56;99377.81;5086928;28;20041;-73
2023/04/27 00:04:56;;;;;;;8.65;3.80;;;;;;;9.20;41.96;99370.72;5087225;28;20312;-73
2023/04/27 00:07:27;;;;;;;7.32;4.30;;;;;;;9.21;41.77;99376.88;5069950;28;20320;-74
2023/04/27 00:09:54;;;;;;;7.85;5.18;;;;;;;9.22;41.72;99373.28;5087393;28;20040;-74
2023/04/27 00:12:21;;;;;;;6.80;4.13;;;;;;;9.03;41.67;99349.50;5070099;28;20041;-74
2023/04/27 00:14:47;;;;;;;4.97;3.67;;;;;;;9.17;41.70;99381.41;5087921;28;20107;-74
2023/04/27 00:17:14;;;;;;;5.00;3.72;;;;;;;9.21;41.81;99379.50;5087293;28;20036;-73
2023/04/27 00:19:41;;;;;;;6.32;4.22;;;;;;;9.21;41.78;99372.44;5086723;28;20169;-73
2023/04/27 00:22:08;;;;;;;5.40;3.55;;;;;;;9.22;42.12;99376.78;5086395;28;20211;-73
2023/04/27 00:24:36;;;;;;;5.55;3.17;;;;;;;9.23;41.84;99367.06;5087071;28;20071;-74
2023/04/27 00:27:02;;;;;;;5.05;3.60;;;;;;;9.20;41.77;99367.22;5087077;28;20049;-74
2023/04/27 00:29:29;;;;;;;4.53;3.05;;;;;;;9.20;41.72;99368.09;5087593;28;20048;-74
2023/04/27 00:31:56;;;;;;;6.28;3.47;;;;;;;9.21;41.84;99368.94;5087289;28;20054;-74
2023/04/27 00:34:23;;;;;;;5.88;3.70;;;;;;;9.20;41.64;99372.50;5086109;28;20048;-73
2023/04/27 00:36:49;;;;;;;6.85;3.65;;;;;;;9.16;41.73;99371.78;5086903;28;20044;-73
2023/04/27 00:39:16;;;;;;;4.85;3.38;;;;;;;9.13;41.78;99361.34;5086890;28;20040;-74
2023/04/27 00:41:44;;;;;;;5.07;3.50;;;;;;;9.14;41.82;99356.91;5086810;28;20247;-73
2023/04/27 00:44:11;;;;;;;6.68;3.33;;;;;;;8.48;41.75;99251.78;5086910;28;20040;-73
2023/04/27 00:46:38;;;;;;;6.70;4.15;;;;;;;9.12;41.88;99357.00;5085624;28;20044;-74
2023/04/27 00:49:05;;;;;;;5.32;3.63;;;;;;;9.11;42.04;99354.44;5085808;28;20124;-74
2023/04/27 00:51:31;;;;;;;5.18;3.30;;;;;;;9.11;41.87;99357.94;5087074;28;20281;-74
2023/04/27 00:53:59;;;;;;;5.82;3.88;;;;;;;9.09;41.75;99357.13;5086512;28;20040;-74
2023/04/27 00:56:26;;;;;;;4.00;3.60;;;;;;;9.06;41.81;99356.44;5086777;28;20044;-73
2023/04/27 00:58:54;;;;;;;6.22;3.75;;;;;;;9.06;41.66;99353.78;5086463;28;20107;-73
2023/04/27 01:01:21;;;;;;;6.05;3.58;;;;;;;9.05;41.51;99355.59;5085607;28;20036;-73
2023/04/27 01:03:49;;;;;;;4.35;2.95;;;;;;;8.82;41.38;99322.34;5086253;28;20032;-74
2023/04/27 01:06:16;;;;;;;5.95;3.60;;;;;;;9.03;41.32;99354.81;5086618;28;20052;-74
2023/04/27 01:08:42;;;;;;;6.07;3.20;;;;;;;9.01;41.50;99359.31;5086670;28;20052;-74
2023/04/27 01:11:09;;;;;;;7.90;3.30;;;;;;;8.63;41.55;99290.66;5086074;28;20059;-75
2023/04/27 01:13:36;;;;;;;5.38;2.92;;;;;;;8.59;41.74;99297.03;5086324;28;20037;-74
2023/04/27 01:16:05;;;;;;;5.60;3.42;;;;;;;8.91;41.74;99358.91;5086437;28;20036;-74
2023/04/27 01:18:32;;;;;;;6.90;3.83;;;;;;;8.57;41.81;99301.53;5086625;28;20051;-74
2023/04/27 01:21:00;;;;;;;5.43;3.78;;;;;;;8.73;41.90;99324.56;5085758;28;20212;-74
2023/04/27 01:23:28;;;;;;;6.07;3.38;;;;;;;8.67;41.84;99320.44;5085671;28;20040;-74
2023/04/27 01:25:54;;;;;;;6.00;3.30;;;;;;;8.85;42.03;99358.34;5086095;28;20062;-73
2023/04/27 01:28:21;;;;;;;4.55;3.90;;;;;;;8.46;42.05;99301.19;5085314;28;20392;-74
2023/04/27 01:30:48;;;;;;;6.32;3.25;;;;;;;8.80;42.19;99365.63;5068559;28;20081;-74
2023/04/27 01:33:15;;;;;;;9.70;3.65;;;;;;;8.76;42.19;99366.69;5085839;28;20104;-74
2023/04/27 01:35:41;;;;;;;5.43;3.55;;;;;;;8.77;42.31;99371.91;5085002;28;20041;-73
2023/04/27 01:38:08;;;;;;;7.32;3.40;;;;;;;8.79;42.39;99367.41;5086317;28;20036;-72
2023/04/27 01:40:37;;;;;;;3.70;2.88;;;;;;;8.78;42.50;99363.06;5084881;28;20132;-73
2023/04/27 01:43:07;;;;;;;5.22;3.70;;;;;;;8.74;42.43;99369.41;5085440;28;20052;-73
2023/04/27 01:45:35;;;;;;;5.68;4.25;;;;;;;8.72;42.36;99368.63;5084870;28;20362;-73
2023/04/27 01:48:02;;;;;;;5.88;3.53;;;;;;;8.37;42.39;99309.53;5084831;28;20048;-73
2023/04/27 01:50:29;;;;;;;7.63;3.60;;;;;;;8.68;42.36;99367.06;5085603;28;20297;-72
2023/04/27 01:52:55;;;;;;;7.70;3.78;;;;;;;8.67;42.31;99368.84;5085522;28;20059;-72
2023/04/27 01:55:22;;;;;;;6.40;3.50;;;;;;;8.67;42.19;99368.00;5084735;28;20041;-72
2023/04/27 01:57:50;;;;;;;5.95;3.50;;;;;;;8.65;42.37;99375.13;5085493;28;20170;-73
2023/04/27 02:00:18;;;;;;;4.90;3.05;;;;;;;8.17;42.30;99299.03;5084684;28;20040;-73
2023/04/27 02:02:45;;;;;;;6.78;4.65;;;;;;;8.61;42.37;99369.13;5085521;28;20067;-71
2023/04/27 02:05:12;;;;;;;5.03;3.50;;;;;;;8.58;42.53;99366.63;5085730;28;20103;-71
2023/04/27 02:07:39;;;;;;;6.20;3.83;;;;;;;8.54;42.56;99370.34;5085715;28;20063;-71
2023/04/27 02:10:06;;;;;;;6.70;3.53;;;;;;;7.45;42.52;99185.38;5085443;28;20235;-73
2023/04/27 02:12:33;;;;;;;4.40;3.08;;;;;;;8.53;42.43;99373.91;5085444;28;20051;-74
2023/04/27 02:15:02;;;;;;;4.25;3.72;;;;;;;8.51;42.45;99373.13;5084499;28;20038;-74
2023/04/27 02:17:30;;;;;;;4.30;3.03;;;;;;;8.29;42.46;99344.22;5084524;28;20299;-74
2023/04/27 02:19:56;;;;;;;4.10;2.95;;;;;;;8.47;42.49;99376.00;5085657;28;20047;-74
2023/04/27 02:22:23;;;;;;;5.45;3.63;;;;;;;8.44;42.67;99381.41;5084508;28;20044;-74
2023/04/27 02:24:50;;;;;;;4.07;3.10;;;;;;;8.41;42.79;99376.28;5085523;28;20044;-75
2023/04/27 02:27:16;;;;;;;3.97;2.95;;;;;;;8.38;42.52;99376.41;5085296;28;20051;-75
2023/04/27 02:29:43;;;;;;;3.80;3.22;;;;;;;8.35;42.81;99380.06;5089346;28;20184;-75
2023/04/27 02:32:11;;;;;;;5.07;3.15;;;;;;;8.32;42.71;99377.56;5089326;28;20036;-75
2023/04/27 02:34:38;;;;;;;6.65;3.42;;;;;;;8.29;42.59;99375.91;5089253;28;20227;-73
2023/04/27 02:37:04;;;;;;;6.22;3.95;;;;;;;8.27;42.63;99375.13;5088700;28;20047;-74
2023/04/27 02:39:31;;;;;;;6.85;3.28;;;;;;;8.27;42.63;99376.91;5089086;28;20063;-74
2023/04/27 02:41:58;;;;;;;7.65;3.50;;;;;;;8.26;42.74;99372.53;5088888;28;20060;-74
2023/04/27 02:44:25;;;;;;;4.97;3.45;;;;;;;8.20;42.89;99378.97;5089023;28;20037;-74
2023/04/27 02:46:52;;;;;;;5.32;3.92;;;;;;;8.16;42.99;99377.38;5088153;28;20074;-75
2023/04/27 02:49:20;;;;;;;7.00;3.53;;;;;;;8.15;43.07;99386.22;5088976;28;20312;-74
2023/04/27 02:51:47;;;;;;;4.18;3.28;;;;;;;8.11;43.17;99383.81;5088925;28;20036;-75
2023/04/27 02:54:14;;;;;;;4.95;3.33;;;;;;;7.83;43.35;99347.22;5088036;28;20033;-75
2023/04/27 02:56:40;;;;;;;4.82;3.30;;;;;;;8.05;43.51;99379.66;5089045;28;20311;-74
2023/04/27 02:59:07;;;;;;;5.85;3.33;;;;;;;7.62;43.57;99322.63;5088960;28;20040;-75
2023/04/27 03:01:34;;;;;;;6.10;3.40;;;;;;;7.99;43.60;99386.06;5088477;28;20282;-74
2023/04/27 03:04:00;;;;;;;4.80;3.58;;;;;;;7.68;43.68;99336.41;5088607;28;20116;-74
2023/04/27 03:06:28;;;;;;;5.43;3.70;;;;;;;7.95;43.82;99387.13;5088915;28;20040;-74
2023/04/27 03:08:55;;;;;;;5.30;3.53;;;;;;;7.95;43.78;99391.53;5087748;28;20036;-73
2023/04/27 03:11:22;;;;;;;6.30;4.20;;;;;;;7.91;43.83;99392.59;5088620;28;20040;-73
2023/04/27 03:13:48;;;;;;;4.90;3.17;;;;;;;7.88;44.10;99385.66;5088529;28;20055;-74
2023/04/27 03:16:15;;;;;;;5.95;3.25;;;;;;;7.49;44.19;99332.84;5088675;28;20245;-74
2023/04/27 03:18:42;;;;;;;6.03;3.90;;;;;;;7.82;44.26;99393.00;5088452;28;20075;-74
2023/04/27 03:21:09;;;;;;;6.20;3.70;;;;;;;7.79;44.39;99387.84;5088419;28;20060;-74
2023/04/27 03:23:38;;;;;;;6.13;3.58;;;;;;;7.78;44.30;99388.78;5087559;28;20060;-73
2023/04/27 03:26:09;;;;;;;5.30;3.72;;;;;;;7.76;44.79;99394.13;5087425;28;20182;-74
2023/04/27 03:28:36;;;;;;;7.05;3.60;;;;;;;7.38;44.44;99335.94;5088576;28;20051;-74
2023/04/27 03:31:05;;;;;;;5.88;3.60;;;;;;;7.72;44.74;99399.59;5088722;28;20048;-73
2023/04/27 03:33:32;;;;;;;5.95;4.07;;;;;;;7.72;44.55;99399.59;5088379;28;20036;-73
2023/04/27 03:35:59;;;;;;;4.90;3.83;;;;;;;7.73;44.80;99401.31;5088668;28;20066;-74
2023/04/27 03:38:27;;;;;;;5.15;3.42;;;;;;;7.69;44.88;99390.88;5088217;28;20045;-74
2023/04/27 03:40:55;;;;;;;9.00;3.80;;;;;;;7.66;45.17;99400.72;5086238;28;20285;-74
2023/04/27 03:43:22;;;;;;;5.85;3.75;;;;;;;7.37;45.28;99365.88;5086933;28;20200;-73
2023/04/27 03:45:49;;;;;;;6.32;4.00;;;;;;;7.62;45.29;99407.91;5086925;28;20090;-73
2023/04/27 03:48:16;;;;;;;5.22;3.47;;;;;;;7.05;45.26;99332.06;5087948;28;20040;-73
2023/04/27 03:50:43;;;;;;;6.22;3.83;;;;;;;7.60;45.23;99428.19;5086925;28;20036;-74
2023/04/27 03:53:10;;;;;;;5.45;3.70;;;;;;;7.59;45.34;99412.44;5087563;28;20078;-74
2023/04/27 03:55:38;;;;;;;4.93;3.80;;;;;;;7.59;45.49;99418.56;5086930;28;20304;-74
2023/04/27 03:58:06;;;;;;;5.72;3.67;;;;;;;7.57;45.70;99415.16;5087092;28;20366;-74
2023/04/27 04:00:33;;;;;;;6.03;4.03;;;;;;;7.59;45.65;99420.34;5087670;28;20120;-73
2023/04/27 04:03:00;;;;;;;7.40;4.30;;;;;;;7.59;46.03;99412.44;5087830;28;20090;-73
2023/04/27 04:05:26;;;;;;;6.80;4.18;;;;;;;7.61;46.16;99407.97;5086833;28;20047;-74
2023/04/27 04:07:53;;;;;;;8.30;3.90;;;;;;;7.60;46.23;99414.16;5086664;28;20037;-74
2023/04/27 04:10:20;;;;;;;8.07;4.35;;;;;;;7.60;46.25;99425.56;5087360;28;20263;-74
2023/04/27 04:12:46;;;;;;;6.65;4.88;;;;;;;7.61;46.33;99423.78;5087441;28;20052;-74
2023/04/27 04:15:15;;;;;;;5.40;4.15;;;;;;;7.58;46.37;99419.50;5086598;28;20040;-74
2023/04/27 04:17:41;;;;;;;6.00;4.53;;;;;;;7.57;46.29;99417.78;5086535;28;20204;-74
2023/04/27 04:20:09;;;;;;;7.03;4.88;;;;;;;7.58;46.04;99422.13;5087499;28;20048;-74
2023/04/27 04:22:36;;;;;;;8.35;4.38;;;;;;;7.41;45.87;99394.75;5087490;28;20044;-73
2023/04/27 04:25:03;;;;;;;6.82;4.15;;;;;;;7.21;46.13;99348.94;5086551;28;20090;-73
2023/04/27 04:27:31;;;;;;;6.60;4.05;;;;;;;7.41;46.13;99392.97;5086318;28;20048;-74
2023/04/27 04:29:59;;;;;;;7.45;4.78;;;;;;;7.61;46.13;99422.00;5086183;28;20115;-74
2023/04/27 04:32:30;;;;;;;6.22;4.18;;;;;;;7.62;45.93;99436.91;5086201;28;20202;-74
2023/04/27 04:34:57;;;;;;;5.20;4.15;;;;;;;7.64;45.85;99423.66;5086116;28;20305;-74
2023/04/27 04:37:24;;;;;;;5.38;4.63;;;;;;;7.67;45.76;99429.66;5086816;28;20300;-74
2023/04/27 04:39:51;;;;;;;6.07;5.00;;;;;;;7.70;45.87;99432.16;5086925;28;20041;-74
2023/04/27 04:42:18;;;;;;;6.60;4.47;;;;;;;7.74;45.72;99432.03;5085876;28;20121;-74
2023/04/27 04:44:44;;;;;;;8.70;4.65;;;;;;;7.77;45.62;99437.19;5086663;28;20116;-74
2023/04/27 04:47:12;;;;;;;11.43;7.00;;;;;;;7.82;45.79;99429.94;5086753;28;20067;-74
2023/04/27 04:49:40;;;;;;;11.75;6.97;;;;;;;7.85;45.80;99435.94;5086626;28;20036;-74
2023/04/27 04:52:08;;;;;;;10.43;6.93;;;;;;;7.54;45.94;99382.75;5086204;28;20041;-73
2023/04/27 04:54:34;;;;;;;9.07;6.65;;;;;;;6.95;46.00;99278.88;5085700;28;20036;-74
2023/04/27 04:57:02;;;;;;;9.68;6.18;;;;;;;7.35;46.00;99345.78;5085616;28;20048;-74
2023/04/27 04:59:29;;;;;;;11.73;6.18;;;;;;;7.21;45.93;99313.81;5086832;28;20086;-73
2023/04/27 05:01:55;;;;;;;8.32;5.30;;;;;;;7.73;46.24;99393.41;5085664;28;20093;-73
2023/04/27 05:04:22;;;;;;;7.03;5.78;;;;;;;7.96;46.04;99440.75;5086223;28;20064;-74
2023/04/27 05:06:51;;;;;;;8.77;5.25;;;;;;;8.01;45.90;99436.13;5085463;28;20040;-73
2023/04/27 05:09:18;;;;;;;8.98;5.10;;;;;;;8.01;46.04;99444.91;5086183;28;20083;-74
2023/04/27 05:11:45;;;;;;;7.63;4.85;;;;;;;8.03;45.96;99443.06;5086743;28;20059;-73
2023/04/27 05:14:11;;;;;;;6.95;4.85;;;;;;;8.09;45.97;99436.66;5085775;28;20045;-73
2023/04/27 05:16:38;;;;;;;6.63;4.88;;;;;;;8.16;45.86;99445.16;5086107;28;20300;-73
2023/04/27 05:19:05;;;;;;;6.97;4.90;;;;;;;8.18;45.78;99436.25;5086025;28;20044;-73
2023/04/27 05:21:32;;;;;;;6.97;5.38;;;;;;;8.22;45.78;99444.91;5085911;28;20104;-74
2023/04/27 05:24:00;;;;;;;6.60;5.15;;;;;;;8.24;45.82;99448.31;5086271;28;20051;-74
2023/04/27 05:26:27;;;;;;;6.07;5.30;;;;;;;8.26;45.70;99447.34;5085982;28;20156;-74
2023/04/27 05:28:54;;;;;;;9.90;5.35;;;;;;;8.23;45.88;99436.06;5086053;28;20094;-74
2023/04/27 05:31:21;;;;;;;7.95;5.45;;;;;;;8.32;45.59;99447.06;5084753;28;20044;-74
2023/04/27 05:33:48;;;;;;;7.63;5.18;;;;;;;7.83;45.67;99369.19;5085557;28;20052;-74
2023/04/27 05:36:15;;;;;;;8.73;4.95;;;;;;;8.19;45.70;99419.50;5085847;28;20085;-73
2023/04/27 05:38:42;;;;;;;6.30;4.88;;;;;;;8.16;45.62;99411.72;5085968;28;20354;-72
2023/04/27 05:41:10;;;;;;;13.00;4.85;;;;;;;8.40;45.61;99451.16;5085471;28;20135;-74
2023/04/27 05:43:37;;;;;;;8.55;5.80;;;;;;;8.38;45.79;99456.50;5085935;28;20329;-73
2023/04/27 05:46:05;;;;;;;8.32;5.22;;;;;;;8.41;45.82;99455.50;5085552;28;20041;-73
2023/04/27 05:48:31;;;;;;;7.35;5.00;;;;;;;8.44;45.76;99463.28;5084782;28;20040;-73
2023/04/27 05:51:02;;;;;;;10.32;6.38;;;;;;;8.27;45.93;99427.94;5085852;28;20194;-74
2023/04/27 05:53:29;;;;;;;7.82;5.40;;;;;;;8.55;45.58;99463.66;5085684;28;20044;-73
2023/04/27 05:55:58;;;;;;;9.30;5.13;;;;;;;8.10;45.66;99397.91;5085949;28;20044;-73
2023/04/27 05:58:26;;;;;;;6.55;5.68;;;;;;;8.69;45.50;99471.81;5085565;28;20289;-73
2023/04/27 06:00:53;;;;;;;7.63;4.90;;;;;;;8.71;45.43;99461.19;5085327;28;20044;-73
2023/04/27 06:03:19;;;;;;;6.97;5.03;;;;;;;8.77;45.34;99467.03;5084785;28;20106;-73
2023/04/27 06:05:46;;;;;;;9.07;5.50;;;;;;;8.44;45.27;99408.69;5084797;28;20047;-73
2023/04/27 06:08:13;;;;;;;7.28;5.45;;;;;;;8.48;44.91;99415.53;5085425;28;20055;-73
2023/04/27 06:10:40;;;;;;;7.38;4.65;;;;;;;8.88;44.76;99480.63;5085862;28;20044;-73
2023/04/27 06:13:07;;;;;;;6.75;4.60;;;;;;;8.91;44.72;99477.84;5086029;28;20044;-74
2023/04/27 06:15:35;;;;;;;10.88;5.25;;;;;;;8.94;44.38;99472.41;5084401;28;20040;-73
2023/04/27 06:18:01;;;;;;;6.40;5.32;;;;;;;8.99;44.06;99469.53;5084359;28;20052;-73
2023/04/27 06:20:29;;;;;;;7.93;4.93;;;;;;;8.17;44.17;99336.00;5085541;28;20107;-73
2023/04/27 06:22:58;;;;;;;12.10;5.63;;;;;;;8.67;44.25;99432.25;5085115;28;20036;-73
2023/04/27 06:25:26;;;;;;;6.45;4.28;;;;;;;9.19;44.16;99485.34;5084332;28;20064;-73
2023/04/27 06:27:52;;;;;;;5.90;4.82;;;;;;;9.27;43.85;99487.63;5085680;28;20040;-73
2023/04/27 06:30:20;;;;;;;8.45;5.63;;;;;;;9.33;43.82;99484.72;5085159;28;20040;-74
2023/04/27 06:32:48;;;;;;;5.88;4.88;;;;;;;9.37;43.88;99488.06;5084197;28;20055;-73
2023/04/27 06:35:15;;;;;;;10.50;6.00;;;;;;;9.41;43.61;99487.00;5068315;28;20087;-74
2023/04/27 06:37:42;;;;;;;9.73;5.28;;;;;;;9.44;43.67;99492.16;5084280;28;20082;-74
2023/04/27 06:40:09;;;;;;;8.70;5.05;;;;;;;9.48;43.45;99486.63;5085257;28;20314;-74
2023/04/27 06:42:36;;;;;;;11.07;5.45;;;;;;;9.47;43.41;99486.72;5084899;28;20056;-73
2023/04/27 06:45:04;;;;;;;8.48;5.57;;;;;;;9.50;43.33;99482.13;5084210;28;20059;-74
2023/04/27 06:47:31;;;;;;;6.25;4.85;;;;;;;9.59;43.07;99492.28;5084086;28;20087;-74
2023/04/27 06:49:59;;;;;;;6.40;4.63;;;;;;;9.69;43.03;99481.22;5084358;28;20046;-74
2023/04/27 06:52:28;;;;;;;7.22;5.28;;;;;;;9.09;42.79;99367.72;5083981;28;20044;-74
2023/04/27 06:54:55;;;;;;;12.80;5.05;;;;;;;9.67;42.91;99456.63;5083941;28;20216;-73
2023/04/27 06:57:21;;;;;;;9.23;5.88;;;;;;;9.92;42.76;99492.38;5085013;28;20292;-73
2023/04/27 06:59:48;;;;;;;8.52;5.22;;;;;;;9.80;42.90;99452.44;5083629;28;20048;-73
2023/04/27 07:02:15;;;;;;;7.47;5.28;;;;;;;10.07;42.64;99487.25;5084957;28;20201;-74
2023/04/27 07:04:42;;;;;;;8.23;4.97;;;;;;;10.17;42.11;99483.19;5083875;28;20037;-73
2023/04/27 07:07:10;;;;;;;8.32;4.85;;;;;;;10.24;41.95;99474.84;5084723;28;20356;-74
2023/04/27 07:09:37;;;;;;;10.00;6.13;;;;;;;10.35;41.78;99471.66;5085327;28;20093;-73
2023/04/27 07:12:04;;;;;;;5.18;4.57;;;;;;;10.56;41.34;99470.50;5083686;28;20244;-74
2023/04/27 07:14:32;;;;;;;8.35;3.85;;;;;;;10.66;40.53;99468.22;5086278;28;20043;-74
2023/04/27 07:16:59;;;;;;;5.88;4.15;;;;;;;10.67;39.72;99469.06;5087484;28;20032;-74
2023/04/27 07:19:25;;;;;;;5.78;4.45;;;;;;;10.65;39.53;99471.81;5087984;28;20070;-74
2023/04/27 07:21:52;;;;;;;7.75;4.88;;;;;;;10.49;39.44;99429.38;5088244;28;20259;-73
2023/04/27 07:24:20;;;;;;;7.97;5.18;;;;;;;10.43;38.96;99405.00;5087504;28;20062;-74
2023/04/27 07:26:47;;;;;;;8.35;4.57;;;;;;;10.38;38.84;99391.16;5088254;28;20228;-73
2023/04/27 07:29:16;;;;;;;8.00;4.85;;;;;;;10.59;38.53;99420.00;5087385;28;20094;-73
2023/04/27 07:31:42;;;;;;;6.47;4.07;;;;;;;10.86;38.19;99461.88;5087160;28;20041;-73
2023/04/27 07:34:10;;;;;;;5.50;4.20;;;;;;;10.87;37.98;99471.53;5087985;28;20044;-74
2023/04/27 07:36:37;;;;;;;7.05;3.90;;;;;;;10.62;37.81;99514.38;5087788;28;20272;-73
2023/04/27 07:39:05;;;;;;;5.13;4.03;;;;;;;10.79;37.95;99426.03;5086858;28;20120;-74
2023/04/27 07:41:34;;;;;;;6.82;3.78;;;;;;;11.11;37.73;99472.00;5087560;28;20273;-74
2023/04/27 07:44:01;;;;;;;8.32;4.13;;;;;;;10.76;37.74;99410.25;5086788;28;20048;-73
2023/04/27 07:46:29;;;;;;;8.80;3.88;;;;;;;11.08;37.55;99467.72;5088061;28;20296;-73
2023/04/27 07:48:58;;;;;;;6.60;3.85;;;;;;;11.11;37.82;99467.53;5087476;28;20047;-74
2023/04/27 07:51:25;;;;;;;8.10;3.50;;;;;;;11.14;37.63;99467.38;5087987;28;20355;-74
2023/04/27 07:53:52;;;;;;;6.60;4.10;;;;;;;11.20;37.61;99472.34;5087084;28;20047;-73
2023/04/27 07:56:19;;;;;;;6.18;3.78;;;;;;;11.21;37.44;99463.44;5087652;28;20036;-74
2023/04/27 07:58:47;;;;;;;9.73;3.38;;;;;;;11.22;37.20;99470.44;5088562;28;20111;-73
2023/04/27 08:01:14;;;;;;;8.30;4.07;;;;;;;11.15;37.10;99469.09;5087685;28;20044;-74
2023/04/27 08:03:41;;;;;;;7.70;4.72;;;;;;;11.06;37.12;99474.91;5087603;28;20044;-73
2023/04/27 08:06:08;;;;;;;4.85;3.78;;;;;;;11.03;37.23;99480.38;5087584;28;20149;-73
2023/04/27 08:08:35;;;;;;;7.63;3.65;;;;;;;10.82;36.96;99442.63;5087924;28;20295;-74
2023/04/27 08:11:02;;;;;;;5.75;3.65;;;;;;;11.08;37.05;99467.72;5087495;28;20044;-74
2023/04/27 08:13:28;;;;;;;8.00;3.95;;;;;;;11.17;36.97;99477.81;5086412;28;20212;-74
2023/04/27 08:15:58;;;;;;;5.97;3.38;;;;;;;11.26;36.57;99473.78;5087813;28;20044;-74
2023/04/27 08:18:25;;;;;;;8.13;3.80;;;;;;;11.26;36.32;99478.25;5087275;28;20062;-74
2023/04/27 08:20:52;;;;;;;6.15;3.45;;;;;;;11.28;36.24;99479.88;5087530;28;20051;-74
2023/04/27 08:23:19;;;;;;;4.95;3.22;;;;;;;11.27;36.11;99477.28;5087471;28;20059;-74
2023/04/27 08:25:46;;;;;;;6.60;3.20;;;;;;;11.27;36.33;99478.16;5086839;28;20059;-73
2023/04/27 08:28:13;;;;;;;6.25;3.70;;;;;;;11.34;36.24;99487.47;5085955;28;20186;-74
2023/04/27 08:30:42;;;;;;;8.10;3.88;;;;;;;11.40;36.07;99488.94;5069514;28;20068;-74
2023/04/27 08:33:11;;;;;;;5.05;2.97;;;;;;;11.44;35.75;99482.50;5087214;28;20208;-73
2023/04/27 08:35:37;;;;;;;7.88;3.80;;;;;;;10.93;35.77;99402.25;5087402;28;20036;-73
2023/04/27 08:38:04;;;;;;;5.75;3.63;;;;;;;11.43;35.66;99494.06;5086763;28;20122;-74
2023/04/27 08:40:31;;;;;;;4.85;3.35;;;;;;;10.39;35.58;99292.19;5086643;28;20041;-74
2023/04/27 08:42:59;;;;;;;6.53;3.90;;;;;;;11.55;35.53;99482.75;5086531;28;20052;-74
2023/04/27 08:45:28;;;;;;;6.03;3.60;;;;;;;11.54;34.32;99481.91;5085791;28;20040;-73
2023/04/27 08:47:54;;;;;;;8.00;3.55;;;;;;;11.53;35.34;99479.34;5086433;28;20036;-74
2023/04/27 08:50:23;;;;;;;10.75;3.95;;;;;;;11.64;35.17;99478.72;5086831;28;20053;-73
2023/04/27 08:52:50;;;;;;;6.55;3.30;;;;;;;11.76;35.01;99483.31;5086601;28;20044;-73
2023/04/27 08:55:17;;;;;;;5.68;3.53;;;;;;;11.88;35.15;99486.13;5086884;28;20170;-74
2023/04/27 08:57:54;;;;;;;7.05;3.58;;;;;;;12.02;33.37;99487.13;5086287;28;20040;-73
2023/04/27 09:00:21;;;;;;;4.97;3.42;;;;;;;11.88;34.53;99443.63;5086836;28;20036;-74
2023/04/27 09:02:49;;;;;;;8.15;4.20;;;;;;;12.19;34.42;99474.59;5085770;28;20178;-73
2023/04/27 09:05:17;;;;;;;5.70;3.53;;;;;;;11.69;34.11;99359.84;5085365;28;20311;-74
2023/04/27 09:07:56;;;;;;;6.30;3.40;;;;;;;11.97;33.18;99412.16;5086531;28;20060;-73
2023/04/27 09:10:23;;;;;;;6.28;3.35;;;;;;;11.97;34.57;99394.41;5086279;28;20033;-74
2023/04/27 09:12:57;;;;;;;4.47;2.97;;;;;;;11.94;33.03;99389.28;5086148;28;20047;-74
2023/04/27 09:15:24;;;;;;;6.13;3.40;;;;;;;12.39;33.67;99469.88;5086347;28;20077;-74
2023/04/27 09:17:56;;;;;;;5.32;3.70;;;;;;;12.34;33.72;99478.13;5086012;28;20261;-74
2023/04/27 09:20:25;;;;;;;6.72;3.05;;;;;;;12.45;34.37;99472.16;5085936;28;20032;-74
2023/04/27 09:22:56;;;;;;;6.53;3.22;;;;;;;12.59;34.29;99469.53;5085173;28;20044;-73
2023/04/27 09:25:24;;;;;;;7.03;3.40;;;;;;;12.73;34.00;99472.19;5084939;28;20040;-74
2023/04/27 09:27:51;;;;;;;4.57;3.83;;;;;;;12.81;33.81;99474.38;5085536;28;20182;-74
2023/04/27 09:30:18;;;;;;;5.82;3.20;;;;;;;12.88;33.86;99473.03;5086302;28;20075;-74
2023/04/27 09:32:53;;;;;;;6.18;3.67;;;;;;;12.81;32.96;99437.13;5068428;28;20047;-74
2023/04/27 09:35:24;;;;;;;6.28;3.65;;;;;;;13.04;33.31;99472.91;5085715;28;20255;-74
2023/04/27 09:37:53;;;;;;;5.43;3.60;;;;;;;12.54;33.74;99372.41;5084550;28;20044;-74
2023/04/27 09:40:23;;;;;;;6.68;3.53;;;;;;;13.22;33.58;99470.91;5085033;28;20041;-73
2023/04/27 09:42:51;;;;;;;5.82;3.45;;;;;;;13.29;33.25;99462.41;5068309;28;20059;-74
2023/04/27 09:45:18;;;;;;;7.75;3.47;;;;;;;13.39;33.33;99462.66;5084565;28;20139;-74
2023/04/27 09:47:46;;;;;;;5.22;3.47;;;;;;;13.46;33.21;99456.03;5085264;28;20086;-74
2023/04/27 09:50:14;;;;;;;13.00;4.18;;;;;;;13.21;33.01;99402.66;5085776;28;20040;-74
2023/04/27 09:52:41;;;;;;;9.05;3.85;;;;;;;13.59;33.13;99456.94;5085785;28;20032;-74
2023/04/27 09:55:15;;;;;;;5.72;4.65;;;;;;;13.62;31.78;99450.56;5084859;28;20044;-73
2023/04/27 09:57:53;;;;;;;4.00;3.08;;;;;;;13.66;31.67;99449.38;5085412;28;20070;-74
2023/04/27 10:00:55;;;;;;;4.20;2.92;;;;;;;13.57;30.96;99418.91;5084551;28;20040;-74
2023/04/27 10:03:28;;;;;;;5.18;3.42;;;;;;;13.52;32.44;99383.75;5084516;28;20040;-74
2023/04/27 10:06:37;;;;;;;20.58;4.72;;;;;;;13.89;30.47;99434.53;5084355;28;20066;-74
2023/04/27 10:09:05;;;;;;;8.80;3.75;;;;;;;13.87;32.34;99437.31;5084972;28;20271;-74
2023/04/27 10:11:40;;;;;;;6.30;3.72;;;;;;;14.01;30.63;99436.38;5084217;28;20048;-73
2023/04/27 10:14:09;;;;;;;6.03;3.45;;;;;;;14.06;31.93;99432.44;5067519;28;20048;-74
2023/04/27 10:16:45;;;;;;;6.32;3.53;;;;;;;14.05;30.85;99433.38;5067704;28;20047;-73
2023/04/27 10:19:13;;;;;;;8.05;3.85;;;;;;;13.30;31.83;99301.75;5085111;28;20057;-74
2023/04/27 10:21:51;;;;;;;7.13;3.70;;;;;;;14.06;30.79;99421.78;5085510;28;20189;-74
2023/04/27 10:24:18;;;;;;;5.13;3.30;;;;;;;14.10;32.46;99423.28;5083816;28;20037;-74
2023/04/27 10:26:50;;;;;;;6.05;4.07;;;;;;;14.12;30.93;99416.03;5085150;28;20050;-74
2023/04/27 10:29:18;;;;;;;5.63;3.28;;;;;;;14.18;32.32;99408.56;5084943;28;20182;-74
2023/04/27 10:31:47;;;;;;;8.32;3.33;;;;;;;14.34;32.03;99412.72;5084635;28;20060;-73
2023/04/27 10:34:17;;;;;;;5.07;3.38;;;;;;;14.21;31.59;99363.03;5084017;28;20059;-73
2023/04/27 10:36:44;;;;;;;6.40;3.40;;;;;;;14.03;31.75;99317.22;5085116;28;20044;-74
2023/04/27 10:39:16;;;;;;;6.93;3.50;;;;;;;14.69;30.95;99398.78;5084118;28;20301;-74
2023/04/27 10:41:53;;;;;;;6.75;4.00;;;;;;;14.56;29.86;99364.06;5084693;28;20059;-74
2023/04/27 10:44:24;;;;;;;10.77;3.85;;;;;;;14.48;31.49;99345.09;5083734;28;20041;-74
2023/04/27 10:46:52;;;;;;;7.05;4.32;;;;;;;15.03;31.21;99399.88;5083768;28;20040;-74
2023/04/27 10:49:19;;;;;;;5.68;4.20;;;;;;;14.88;31.01;99340.47;5086254;28;20063;-74
2023/04/27 10:51:46;;;;;;;8.20;4.60;;;;;;;14.89;30.90;99310.16;5088844;28;20360;-74
2023/04/27 10:54:14;;;;;;;6.18;4.20;;;;;;;15.53;30.44;99387.28;5088016;28;20041;-73
2023/04/27 10:56:41;;;;;;;7.18;4.00;;;;;;;15.70;30.63;99379.72;5088506;28;20036;-74
2023/04/27 10:59:10;;;;;;;6.50;3.92;;;;;;;15.55;30.70;99356.81;5088308;28;20038;-74
2023/04/27 11:01:37;;;;;;;7.32;4.18;;;;;;;15.86;30.89;99382.09;5088729;28;20044;-74
2023/04/27 11:04:05;;;;;;;4.55;3.63;;;;;;;15.99;30.48;99382.00;5087846;28;20319;-73
2023/04/27 11:06:33;;;;;;;6.95;4.68;;;;;;;15.38;30.27;99264.63;5088152;28;20056;-74
2023/04/27 11:09:01;;;;;;;6.43;5.45;;;;;;;16.14;30.13;99385.31;5088220;28;20074;-74
2023/04/27 11:11:28;;;;;;;7.88;4.90;;;;;;;16.08;30.21;99383.97;5088737;28;20048;-74
2023/04/27 11:13:55;;;;;;;7.72;4.22;;;;;;;16.02;30.01;99381.75;5087509;28;20298;-74
2023/04/27 11:16:23;;;;;;;9.00;5.15;;;;;;;16.03;29.90;99380.78;5087053;28;20047;-73
2023/04/27 11:18:50;;;;;;;5.60;4.28;;;;;;;15.35;30.57;99280.03;5087214;28;20043;-74
2023/04/27 11:21:20;;;;;;;6.82;4.82;;;;;;;15.93;30.13;99369.09;5088465;28;20297;-74
2023/04/27 11:23:47;;;;;;;6.70;4.15;;;;;;;15.76;30.40;99345.50;5088089;28;20111;-74
2023/04/27 11:26:16;;;;;;;5.32;4.18;;;;;;;15.87;30.04;99345.53;5087440;28;20102;-74
2023/04/27 11:28:43;;;;;;;5.45;4.40;;;;;;;15.76;30.03;99321.44;5087922;28;20044;-74
2023/04/27 11:31:11;;;;;;;8.27;4.50;;;;;;;16.23;29.53;99377.41;5088121;28;20273;-73
2023/04/27 11:33:47;;;;;;;7.93;4.53;;;;;;;16.35;29.41;99383.63;5086984;28;20048;-74
2023/04/27 11:36:17;;;;;;;7.60;5.32;;;;;;;16.46;29.34;99380.09;5088061;28;20074;-74
2023/04/27 11:38:44;;;;;;;8.25;4.95;;;;;;;16.58;29.86;99379.13;5087819;28;20059;-74
2023/04/27 11:41:11;;;;;;;8.18;4.65;;;;;;;16.67;29.34;99381.13;5087925;28;20036;-73